createdAt,value
2022-08-03T00:13:40.820Z,55.88
2022-08-03T00:16:08.802Z,56.38
2022-08-03T00:18:36.547Z,55.95
2022-08-03T00:21:04.463Z,55.57
2022-08-03T00:23:50.953Z,56.08
2022-08-03T00:26:20.084Z,56.38
2022-08-03T00:28:49.302Z,56.88
2022-08-03T00:31:23.136Z,56.87
2022-08-03T00:34:06.149Z,56.56
2022-08-03T00:36:34.701Z,56.45
2022-08-03T00:39:02.454Z,56.92
2022-08-03T00:41:30.229Z,56.82
2022-08-03T00:43:59.336Z,57.20
2022-08-03T00:46:27.063Z,57.27
2022-08-03T00:48:55.395Z,57.11
2022-08-03T00:51:23.850Z,57.03
2022-08-03T00:53:52.269Z,57.07
2022-08-03T00:56:20.070Z,57.04
2022-08-03T00:58:48.436Z,56.85
2022-08-03T01:01:17.564Z,56.57
2022-08-03T01:03:45.640Z,56.64
2022-08-03T01:06:19.292Z,55.99
2022-08-03T01:08:53.523Z,55.83
2022-08-03T01:11:28.483Z,56.50
2022-08-03T01:14:19.036Z,56.81
2022-08-03T01:16:56.961Z,57.13
2022-08-03T01:19:42.981Z,57.57
2022-08-03T01:22:24.396Z,57.76
2022-08-03T01:25:00.561Z,58.11
2022-08-03T01:27:34.478Z,58.57
2022-08-03T01:30:07.216Z,58.68
2022-08-03T01:32:53.470Z,58.06
2022-08-03T01:35:34.566Z,57.75
2022-08-03T01:38:11.025Z,57.63
2022-08-03T01:40:41.654Z,57.29
2022-08-03T01:43:11.746Z,57.59
2022-08-03T01:45:41.549Z,57.51
2022-08-03T01:48:11.073Z,57.90
2022-08-03T01:50:39.775Z,57.47
2022-08-03T01:53:10.006Z,57.67
2022-08-03T01:55:39.469Z,57.39
2022-08-03T01:58:09.424Z,57.07
2022-08-03T02:00:38.584Z,57.56
2022-08-03T02:03:09.408Z,57.75
2022-08-03T02:05:39.071Z,58.17
2022-08-03T02:08:11.684Z,58.39
2022-08-03T02:10:43.234Z,58.22
2022-08-03T02:13:12.147Z,58.15
2022-08-03T02:15:40.299Z,57.90
2022-08-03T02:18:10.929Z,57.62
2022-08-03T02:20:39.959Z,57.95
2022-08-03T02:23:08.477Z,57.73
2022-08-03T02:25:43.099Z,58.54
2022-08-03T02:28:13.381Z,58.25
2022-08-03T02:30:46.823Z,58.54
2022-08-03T02:33:26.005Z,58.48
2022-08-03T02:35:54.932Z,58.15
2022-08-03T02:38:27.152Z,58.37
2022-08-03T02:40:57.334Z,58.24
2022-08-03T02:43:26.393Z,58.30
2022-08-03T02:45:55.453Z,58.41
2022-08-03T02:48:29.083Z,58.60
2022-08-03T02:51:00.145Z,59.17
2022-08-03T02:53:29.887Z,59.04
2022-08-03T02:55:59.124Z,59.13
2022-08-03T02:58:27.232Z,59.31
2022-08-03T03:00:56.189Z,59.56
2022-08-03T03:03:27.613Z,59.01
2022-08-03T03:05:59.788Z,59.33
2022-08-03T03:08:29.221Z,59.65
2022-08-03T03:10:59.269Z,59.46
2022-08-03T03:13:29.270Z,59.10
2022-08-03T03:16:00.635Z,58.97
2022-08-03T03:18:32.398Z,59.42
2022-08-03T03:21:01.653Z,59.74
2022-08-03T03:23:31.637Z,60.14
2022-08-03T03:26:02.294Z,60.29
2022-08-03T03:28:31.593Z,60.60
2022-08-03T03:30:59.693Z,60.42
2022-08-03T03:33:28.583Z,60.76
2022-08-03T03:35:59.541Z,60.88
2022-08-03T03:38:27.387Z,60.36
2022-08-03T03:40:55.727Z,60.73
2022-08-03T03:43:24.913Z,61.34
2022-08-03T03:45:53.900Z,61.40
2022-08-03T03:48:22.126Z,61.48
2022-08-03T03:50:51.059Z,61.85
2022-08-03T03:53:20.457Z,61.74
2022-08-03T03:56:01.542Z,62.20
2022-08-03T03:58:32.059Z,62.42
2022-08-03T04:00:59.952Z,62.66
2022-08-03T04:03:27.752Z,62.67
2022-08-03T04:06:12.939Z,63.54
2022-08-03T04:08:59.535Z,63.45
2022-08-03T04:11:31.870Z,63.64
2022-08-03T04:14:05.079Z,63.03
2022-08-03T04:16:37.989Z,62.74
2022-08-03T04:19:11.491Z,62.60
2022-08-03T04:21:42.490Z,62.57
2022-08-03T04:24:14.853Z,62.67
2022-08-03T04:26:50.876Z,63.14
2022-08-03T04:29:21.919Z,63.07
2022-08-03T04:31:51.300Z,62.67
2022-08-03T04:34:19.498Z,62.49
2022-08-03T04:36:51.081Z,62.44
2022-08-03T04:39:26.511Z,62.57
2022-08-03T04:42:07.550Z,62.74
2022-08-03T04:44:45.597Z,62.61
2022-08-03T04:47:13.337Z,62.89
2022-08-03T04:49:41.623Z,62.49
2022-08-03T04:52:10.388Z,62.73
2022-08-03T04:54:50.231Z,62.47
2022-08-03T04:57:23.134Z,61.80
2022-08-03T05:00:01.413Z,62.11
2022-08-03T05:02:31.674Z,61.42
2022-08-03T05:04:59.950Z,61.75
2022-08-03T05:07:35.652Z,61.70
2022-08-03T05:10:14.817Z,61.69
2022-08-03T05:12:45.105Z,61.59
2022-08-03T05:15:13.220Z,61.25
2022-08-03T05:17:41.296Z,61.80
2022-08-03T05:20:10.542Z,61.97
2022-08-03T05:22:38.777Z,61.79
2022-08-03T05:25:08.710Z,61.19
2022-08-03T05:27:36.526Z,61.12
2022-08-03T05:30:29.652Z,60.79
2022-08-03T05:32:53.430Z,60.82
2022-08-03T05:35:55.787Z,60.63
2022-08-03T05:38:09.644Z,60.15
2022-08-03T05:40:39.680Z,60.16
2022-08-03T05:43:24.437Z,59.45
2022-08-03T05:46:12.244Z,59.02
2022-08-03T05:48:40.431Z,58.36
2022-08-03T05:51:11.753Z,57.88
2022-08-03T05:53:40.418Z,57.44
2022-08-03T05:56:13.616Z,57.35
2022-08-03T05:58:42.870Z,57.50
2022-08-03T06:01:10.701Z,57.46
2022-08-03T06:03:38.444Z,57.29
2022-08-03T06:06:06.280Z,55.82
2022-08-03T06:08:34.055Z,54.89
2022-08-03T06:11:02.091Z,54.52
2022-08-03T06:13:31.185Z,53.94
2022-08-03T06:15:58.944Z,53.63
2022-08-03T06:18:26.828Z,54.22
2022-08-03T06:20:55.114Z,54.08
2022-08-03T06:23:53.947Z,54.22
2022-08-03T06:26:13.298Z,54.04
2022-08-03T06:28:52.733Z,53.54
2022-08-03T06:31:21.949Z,53.56
2022-08-03T06:34:32.989Z,52.83
2022-08-03T06:36:37.532Z,52.82
2022-08-03T06:39:06.200Z,51.98
2022-08-03T06:41:37.241Z,51.97
2022-08-03T06:44:07.398Z,51.96
2022-08-03T06:46:35.547Z,51.93
2022-08-03T06:49:03.323Z,51.40
2022-08-03T06:52:06.127Z,51.13
2022-08-03T06:54:18.910Z,50.06
2022-08-03T06:56:46.654Z,49.96
2022-08-03T07:00:07.774Z,49.63
2022-08-03T07:02:03.798Z,48.91
2022-08-03T07:04:31.609Z,48.71
2022-08-03T07:06:59.441Z,47.97
2022-08-03T07:09:27.204Z,48.13
2022-08-03T07:11:55.177Z,47.81
2022-08-03T07:14:24.357Z,47.66
2022-08-03T07:16:52.082Z,47.50
2022-08-03T07:19:19.812Z,47.36
2022-08-03T07:21:47.706Z,46.11
2022-08-03T07:24:15.506Z,46.15
2022-08-03T07:26:43.404Z,45.71
2022-08-03T07:29:15.261Z,45.24
2022-08-03T07:31:44.589Z,45.18
2022-08-03T07:34:12.751Z,45.10
2022-08-03T07:36:40.496Z,44.28
2022-08-03T07:39:15.343Z,43.89
2022-08-03T07:41:46.394Z,43.82
2022-08-03T07:44:14.526Z,44.04
2022-08-03T07:46:42.453Z,44.50
2022-08-03T07:49:11.735Z,43.83
2022-08-03T07:51:40.278Z,43.82
2022-08-03T07:54:10.134Z,43.45
2022-08-03T07:56:38.438Z,42.52
2022-08-03T07:59:06.212Z,42.78
2022-08-03T08:01:36.647Z,42.40
2022-08-03T08:04:04.654Z,42.00
2022-08-03T08:06:34.082Z,41.57
2022-08-03T08:09:02.382Z,41.43
2022-08-03T08:11:33.989Z,41.21
2022-08-03T08:14:05.496Z,40.14
2022-08-03T08:16:33.324Z,39.90
2022-08-03T08:19:02.081Z,39.31
2022-08-03T08:21:53.000Z,38.05
2022-08-03T08:24:20.353Z,37.17
2022-08-03T08:26:48.350Z,36.60
2022-08-03T08:29:16.091Z,36.63
2022-08-03T08:31:43.896Z,35.46
2022-08-03T08:34:11.572Z,35.33
2022-08-03T08:36:39.295Z,34.31
2022-08-03T08:39:07.076Z,33.86
2022-08-03T08:41:36.270Z,33.14
2022-08-03T08:44:04.176Z,33.55
2022-08-03T08:46:33.872Z,33.32
2022-08-03T08:49:04.570Z,33.42
2022-08-03T08:51:54.435Z,32.96
2022-08-03T08:54:26.977Z,32.93
2022-08-03T08:56:59.813Z,32.66
2022-08-03T08:59:49.620Z,31.66
2022-08-03T09:02:16.353Z,31.81
2022-08-03T09:04:45.627Z,31.94
2022-08-03T09:07:20.183Z,31.39
2022-08-03T09:10:11.239Z,31.50
2022-08-03T09:12:44.474Z,30.98
2022-08-03T09:15:23.485Z,30.84
2022-08-03T09:17:52.714Z,30.25
2022-08-03T09:20:22.424Z,30.44
2022-08-03T09:22:59.074Z,29.77
2022-08-03T09:25:34.529Z,30.01
2022-08-03T09:28:09.122Z,29.60
2022-08-03T09:30:38.966Z,29.67
2022-08-03T09:33:08.373Z,29.61
2022-08-03T09:35:58.135Z,29.16
2022-08-03T09:38:27.481Z,28.83
2022-08-03T09:40:59.873Z,29.06
2022-08-03T09:43:29.975Z,28.83
2022-08-03T09:46:04.804Z,28.53
2022-08-03T09:48:35.011Z,28.57
2022-08-03T09:51:12.847Z,27.95
2022-08-03T09:53:58.540Z,26.88
2022-08-03T09:56:39.570Z,26.75
2022-08-03T09:59:08.837Z,26.69
2022-08-03T10:01:38.812Z,26.71
2022-08-03T10:04:06.670Z,26.27
2022-08-03T10:06:34.521Z,26.52
2022-08-03T10:09:08.031Z,25.55
2022-08-03T10:11:41.191Z,25.41
2022-08-03T10:14:18.711Z,25.27
2022-08-03T10:16:47.560Z,26.00
2022-08-03T10:19:16.138Z,25.48
2022-08-03T10:21:49.373Z,25.54
2022-08-03T10:24:21.293Z,25.17
2022-08-03T10:26:50.759Z,24.35
2022-08-03T10:29:24.780Z,24.98
2022-08-03T10:31:58.140Z,24.45
2022-08-03T10:34:28.140Z,24.03
2022-08-03T10:36:59.806Z,24.29
2022-08-03T10:39:30.769Z,23.98
2022-08-03T10:42:00.065Z,23.64
2022-08-03T10:44:38.345Z,23.83
2022-08-03T10:47:06.728Z,23.51
2022-08-03T10:49:35.706Z,23.40
2022-08-03T10:52:11.192Z,23.71
2022-08-03T10:54:57.105Z,23.67
2022-08-03T10:57:49.731Z,23.53
2022-08-03T11:00:20.917Z,24.00
2022-08-03T11:03:07.124Z,23.48
2022-08-03T11:05:37.516Z,23.66
2022-08-03T11:08:29.310Z,23.47
2022-08-03T11:11:02.334Z,23.45
2022-08-03T11:13:33.494Z,23.17
2022-08-03T11:16:21.908Z,23.10
2022-08-03T11:18:57.889Z,22.77
2022-08-03T11:22:01.347Z,22.85
2022-08-03T11:25:00.611Z,22.68
2022-08-03T11:27:30.862Z,23.00
2022-08-03T11:30:05.254Z,22.79
2022-08-03T11:32:58.381Z,22.93
2022-08-03T11:35:28.952Z,22.82
2022-08-03T11:38:11.876Z,22.58
2022-08-03T11:40:43.676Z,22.32
2022-08-03T11:43:34.797Z,22.62
2022-08-03T11:46:04.274Z,23.10
2022-08-03T11:48:38.736Z,23.10
2022-08-03T11:51:08.883Z,23.20
2022-08-03T11:53:42.045Z,23.51
2022-08-03T11:56:12.508Z,23.31
2022-08-03T11:59:16.705Z,23.33
2022-08-03T12:01:35.618Z,23.13
2022-08-03T12:04:06.238Z,22.85
2022-08-03T12:06:54.369Z,22.80
2022-08-03T12:09:22.446Z,22.97
2022-08-03T12:12:00.345Z,22.94
2022-08-03T12:14:48.455Z,22.64
2022-08-03T12:17:17.909Z,22.78
2022-08-03T12:19:47.406Z,22.29
2022-08-03T12:22:16.012Z,22.21
2022-08-03T12:24:46.806Z,22.28
2022-08-03T12:27:24.316Z,21.79
2022-08-03T12:29:58.627Z,21.72
2022-08-03T12:32:27.655Z,21.61
2022-08-03T12:35:00.836Z,21.84
2022-08-03T12:37:29.760Z,21.99
2022-08-03T12:40:02.660Z,22.19
2022-08-03T12:42:35.036Z,21.63
2022-08-03T12:45:21.541Z,21.75
2022-08-03T12:47:56.679Z,21.63
2022-08-03T12:50:31.483Z,21.60
2022-08-03T12:53:00.434Z,21.33
2022-08-03T12:56:02.347Z,21.76
2022-08-03T12:58:33.665Z,21.47
2022-08-03T13:01:04.731Z,21.64
2022-08-03T13:03:42.663Z,21.42
2022-08-03T13:06:15.764Z,21.78
2022-08-03T13:08:44.492Z,21.96
2022-08-03T13:11:55.508Z,21.90
2022-08-03T13:14:16.714Z,21.86
2022-08-03T13:16:47.545Z,21.60
2022-08-03T13:19:16.135Z,22.24
2022-08-03T13:22:01.659Z,21.98
2022-08-03T13:24:32.045Z,21.99
2022-08-03T13:26:59.993Z,22.25
2022-08-03T13:29:27.708Z,22.11
2022-08-03T13:31:55.574Z,22.24
2022-08-03T13:34:24.108Z,22.64
2022-08-03T13:37:08.365Z,22.10
2022-08-03T13:39:58.054Z,21.83
2022-08-03T13:42:24.379Z,21.87
2022-08-03T13:44:52.393Z,21.13
2022-08-03T13:47:21.127Z,20.83
2022-08-03T13:50:00.207Z,21.03
2022-08-03T13:52:32.254Z,20.06
2022-08-03T13:55:00.304Z,20.32
2022-08-03T13:58:03.129Z,19.67
2022-08-03T14:00:27.657Z,19.25
2022-08-03T14:03:03.857Z,19.12
2022-08-03T14:05:35.740Z,19.46
2022-08-03T14:08:06.627Z,19.78
2022-08-03T14:10:36.187Z,19.40
2022-08-03T14:13:04.506Z,19.92
2022-08-03T14:15:32.388Z,19.69
2022-08-03T14:18:06.603Z,19.75
2022-08-03T14:20:38.868Z,19.47
2022-08-03T14:23:18.417Z,19.98
2022-08-03T14:25:52.425Z,20.24
2022-08-03T14:28:22.309Z,20.61
2022-08-03T14:30:50.789Z,20.42
2022-08-03T14:33:18.640Z,20.57
2022-08-03T14:35:46.424Z,20.05
2022-08-03T14:38:14.488Z,20.41
2022-08-03T14:40:43.860Z,20.06
2022-08-03T14:43:11.938Z,20.68
2022-08-03T14:45:39.764Z,20.63
2022-08-03T14:50:34.599Z,20.13
2022-08-03T14:50:56.754Z,20.54
2022-08-03T14:53:25.158Z,20.18
2022-08-03T14:55:54.218Z,20.61
2022-08-03T14:58:25.211Z,20.61
2022-08-03T15:00:54.332Z,20.76
2022-08-03T15:03:24.854Z,20.99
2022-08-03T15:05:53.447Z,20.88
2022-08-03T15:08:21.842Z,20.51
2022-08-03T15:10:49.763Z,20.92
2022-08-03T15:13:20.398Z,20.75
2022-08-03T15:15:49.547Z,20.97
2022-08-03T15:18:17.482Z,21.05
2022-08-03T15:20:46.605Z,20.64
2022-08-03T15:23:15.770Z,20.48
2022-08-03T15:26:30.291Z,21.19
2022-08-03T15:28:33.141Z,21.52
2022-08-03T15:31:00.942Z,21.17
2022-08-03T15:33:29.084Z,21.91
2022-08-03T15:35:57.471Z,21.86
2022-08-03T15:38:26.484Z,22.08
2022-08-03T15:40:55.306Z,22.35
2022-08-03T15:43:23.844Z,22.09
2022-08-03T15:46:26.625Z,21.93
2022-08-03T15:48:41.289Z,22.26
2022-08-03T15:51:09.707Z,21.95
2022-08-03T15:53:37.690Z,22.00
2022-08-03T15:56:11.409Z,21.73
2022-08-03T15:59:04.579Z,22.17
2022-08-03T16:01:30.369Z,22.75
2022-08-03T16:03:58.230Z,22.96
2022-08-03T16:06:29.733Z,22.23
2022-08-03T16:09:05.336Z,22.91
2022-08-03T16:11:33.169Z,22.72
2022-08-03T16:14:12.355Z,22.86
2022-08-03T16:16:50.200Z,22.22
2022-08-03T16:19:17.915Z,22.91
2022-08-03T16:21:48.788Z,22.78
2022-08-03T16:24:24.247Z,22.78
2022-08-03T16:26:55.865Z,22.16
2022-08-03T16:29:24.175Z,22.33
2022-08-03T16:31:53.832Z,23.09
2022-08-03T16:34:21.846Z,22.48
2022-08-03T16:36:49.627Z,22.75
2022-08-03T16:39:17.384Z,23.50
2022-08-03T16:41:54.078Z,23.13
2022-08-03T16:44:29.950Z,23.45
2022-08-03T16:46:59.600Z,22.91
2022-08-03T16:49:55.468Z,23.10
2022-08-03T16:52:17.901Z,23.33
2022-08-03T16:54:52.550Z,23.77
2022-08-03T16:57:29.897Z,23.58
2022-08-03T17:00:12.507Z,23.65
2022-08-03T17:03:19.170Z,23.47
2022-08-03T17:05:49.819Z,23.63
2022-08-03T17:08:26.132Z,23.61
2022-08-03T17:10:54.962Z,23.72
2022-08-03T17:13:38.733Z,23.89
2022-08-03T17:16:09.517Z,24.68
2022-08-03T17:18:42.172Z,24.08
2022-08-03T17:21:16.566Z,24.01
2022-08-03T17:23:53.429Z,24.66
2022-08-03T17:26:24.611Z,24.53
2022-08-03T17:29:11.158Z,24.59
2022-08-03T17:31:48.907Z,25.02
2022-08-03T17:34:19.843Z,24.76
2022-08-03T17:37:05.582Z,25.36
2022-08-03T17:39:59.827Z,24.88
2022-08-03T17:42:30.241Z,25.39
2022-08-03T17:45:02.414Z,25.18
2022-08-03T17:47:41.447Z,25.72
2022-08-03T17:50:25.026Z,26.11
2022-08-03T17:53:07.569Z,25.69
2022-08-03T17:55:55.891Z,25.81
2022-08-03T17:58:43.643Z,26.29
2022-08-03T18:01:59.996Z,25.88
2022-08-03T18:04:30.334Z,25.99
2022-08-03T18:07:11.751Z,26.47
2022-08-03T18:10:03.485Z,26.52
2022-08-03T18:12:41.477Z,26.28
2022-08-03T18:15:21.462Z,26.54
2022-08-03T18:17:58.288Z,26.86
2022-08-03T18:20:41.201Z,26.91
2022-08-03T18:23:25.168Z,27.13
2022-08-03T18:26:02.462Z,27.24
2022-08-03T18:28:33.617Z,27.50
2022-08-03T18:31:06.057Z,27.75
2022-08-03T18:34:16.858Z,27.69
2022-08-03T18:36:30.548Z,27.52
2022-08-03T18:39:02.620Z,27.92
2022-08-03T18:41:32.067Z,28.59
2022-08-03T18:44:08.222Z,28.74
2022-08-03T18:46:57.752Z,29.12
2022-08-03T18:49:41.401Z,29.09
2022-08-03T18:52:17.940Z,28.88
2022-08-03T18:55:09.543Z,29.20
2022-08-03T18:57:46.570Z,30.05
2022-08-03T19:00:17.485Z,30.05
2022-08-03T19:02:58.612Z,30.39
2022-08-03T19:05:56.410Z,30.25
2022-08-03T19:08:17.893Z,30.51
2022-08-03T19:10:57.720Z,30.52
2022-08-03T19:13:36.630Z,30.95
2022-08-03T19:16:08.554Z,30.91
2022-08-03T19:18:38.857Z,31.12
2022-08-03T19:21:15.686Z,30.98
2022-08-03T19:23:46.000Z,31.45
2022-08-03T19:29:14.935Z,31.11
2022-08-03T19:31:59.456Z,30.76
2022-08-03T19:34:28.824Z,31.61
2022-08-03T19:36:58.192Z,31.37
2022-08-03T19:39:26.925Z,32.97
2022-08-03T19:42:08.014Z,33.11
2022-08-03T19:44:41.662Z,33.84
2022-08-03T19:47:17.122Z,34.59
2022-08-03T19:49:57.095Z,34.56
2022-08-03T19:52:36.011Z,35.03
2022-08-03T19:55:09.541Z,36.08
2022-08-03T19:57:45.644Z,36.03
2022-08-03T20:00:18.505Z,36.78
2022-08-03T20:02:46.514Z,36.59
2022-08-03T20:05:15.867Z,37.42
2022-08-03T20:07:47.714Z,36.72
2022-08-03T20:10:17.739Z,37.14
2022-08-03T20:12:48.423Z,37.45
2022-08-03T20:15:22.372Z,38.31
2022-08-03T20:17:59.417Z,39.57
2022-08-03T20:20:29.754Z,39.52
2022-08-03T20:22:59.308Z,39.48
2022-08-03T20:28:26.659Z,38.22
2022-08-03T20:30:54.762Z,38.25
2022-08-03T20:33:27.792Z,37.35
2022-08-03T20:36:11.331Z,38.51
2022-08-03T20:38:43.625Z,39.92
2022-08-03T20:41:11.730Z,40.04
2022-08-03T20:43:41.799Z,40.88
2022-08-03T20:46:35.384Z,40.87
2022-08-03T20:48:58.969Z,41.52
2022-08-03T20:51:49.201Z,41.70
2022-08-03T20:54:29.838Z,41.98
2022-08-03T20:57:00.176Z,41.91
2022-08-03T20:59:47.045Z,41.71
2022-08-03T21:02:28.678Z,42.66
2022-08-03T21:04:57.212Z,42.55
2022-08-03T21:07:25.304Z,42.10
2022-08-03T21:10:15.856Z,42.39
2022-08-03T21:12:51.779Z,42.13
2022-08-03T21:13:02.203Z,31.75
2022-08-03T21:13:06.786Z,39.19
2022-08-03T21:16:06.538Z,42.84
2022-08-03T21:18:15.752Z,42.48
2022-08-03T21:20:46.048Z,43.02
2022-08-03T21:23:35.192Z,42.82
2022-08-03T21:26:04.803Z,43.06
2022-08-03T21:28:32.780Z,43.19
2022-08-03T21:31:02.698Z,43.20
2022-08-03T21:33:30.773Z,43.72
2022-08-03T21:35:59.142Z,43.87
2022-08-03T21:38:30.155Z,43.99
2022-08-03T21:40:58.573Z,44.22
2022-08-03T21:43:26.490Z,44.30
2022-08-03T21:45:58.724Z,44.65
2022-08-03T21:48:28.735Z,44.89
2022-08-03T21:50:56.610Z,45.04
2022-08-03T21:53:28.078Z,45.17
2022-08-03T21:56:19.931Z,45.40
2022-08-03T21:58:51.597Z,45.41
2022-08-03T22:01:20.986Z,45.74
2022-08-03T22:03:54.016Z,46.00
2022-08-03T22:06:22.169Z,46.01
2022-08-03T22:08:52.670Z,46.49
2022-08-03T22:11:20.611Z,46.81
2022-08-03T22:13:48.790Z,46.93
2022-08-03T22:16:17.163Z,46.47
2022-08-03T22:18:46.928Z,46.08
2022-08-03T22:21:28.009Z,46.00
2022-08-03T22:24:06.472Z,46.25
2022-08-03T22:26:36.535Z,46.13
2022-08-03T22:29:08.706Z,45.96
2022-08-03T22:31:57.746Z,46.22
2022-08-03T22:34:27.340Z,46.53
2022-08-03T22:37:02.547Z,46.17
2022-08-03T22:39:31.618Z,46.32
2022-08-03T22:41:59.865Z,46.41
2022-08-03T22:44:28.349Z,46.22
2022-08-03T22:46:56.829Z,46.30
2022-08-03T22:49:25.221Z,46.10
2022-08-03T22:51:53.763Z,46.13
2022-08-03T22:54:24.045Z,46.58
2022-08-03T22:56:52.615Z,46.16
2022-08-03T22:59:39.746Z,46.56
2022-08-03T23:02:15.017Z,46.58
2022-08-03T23:04:51.544Z,46.24
2022-08-03T23:07:27.981Z,46.51
2022-08-03T23:09:58.434Z,46.36
2022-08-03T23:12:29.460Z,46.79
2022-08-03T23:15:02.342Z,47.42
2022-08-03T23:17:31.817Z,47.31
2022-08-03T23:20:05.072Z,47.43
2022-08-03T23:22:34.586Z,47.24
2022-08-03T23:25:04.753Z,47.62
2022-08-03T23:27:34.003Z,47.33
2022-08-03T23:30:03.188Z,47.09
2022-08-03T23:32:31.929Z,47.15
2022-08-03T23:35:19.503Z,46.37
2022-08-03T23:38:21.295Z,46.41
2022-08-03T23:40:38.396Z,46.12
2022-08-03T23:43:06.551Z,45.81
2022-08-03T23:45:36.645Z,45.66
2022-08-03T23:48:04.543Z,45.97
2022-08-03T23:50:50.089Z,46.02
2022-08-03T23:53:22.643Z,46.24
2022-08-03T23:56:09.144Z,46.37
2022-08-03T23:58:48.307Z,46.66
